New Galilee, Pennsylvania
Current Conditions -  °F | °C
As of 8:47 AM on Thursday 30 Oct 2014 (Local Time) from KBVI Reporting Station
Overcast Overcast  
Wind Chill: 39°   Ceiling: 4800
Heat Index: 43°   Visibility: 10mi
Dew Point: 39°   Wind: 6mph
Humidity: 87%   Direction: 280°W
Pressure: 30.1"   Gusts: NA
Location:  40.84°N, 80.4°W
Report Text: KBVI 301247Z 28005KT 10SM OVC048 06/04 A3010
Loading
Personal Weather Stations






























Interactive Weather Map
Tropical Storm Tracking
New forecast layout! Learn more

10-Day Weather Forecast

Advertisements
Track Severe Weather on mobile